Flight Track Log - Related Links

Times and Time Zones

All times are in EDT time to prevent confusion due to time zone crossing. See the SWA2236 flight status page for this flight to view local times or setup timezone preferences in your user account.

Time Position Orientation Groundspeed Altitude Reporting Facility
EDT Latitude Longitude Course Direction KTS MPH feet Rate Location/Type
Sun 02:37:17 PM 36.0753 -115.2244 92° East 206 237 4,300  Level Los Angeles Center
Sun 02:38:17 PM 36.0264 -115.2775 221° Southwest 270 311 6,000 1,892 Climbing Los Angeles Center
Sun 02:39:08 PM 35.9697 -115.2989 197° South 275 316 7,800 1,525 Climbing Los Angeles Center
Sun 02:40:19 PM 35.9239 -115.2131 123° Southeast 297 342 9,100 1,200 Climbing Los Angeles Center
Sun 02:41:13 PM 35.9233 -115.1289 90° East 300 345 10,300 1,448 Climbing Los Angeles Center
Sun 02:42:00 PM 36.0653 -114.5589 92° East  Level Estimated
Sun 02:42:15 PM 35.9233 -115.0214 90° East 308 354 11,900  Level Los Angeles Center
Sun 02:43:17 PM 35.9242 -114.8722 90° East 351 404 14,300 2,419 Climbing Los Angeles Center
Sun 02:44:19 PM 35.9239 -114.7425 90° East 371 427 16,900 2,323 Climbing Los Angeles Center
Sun 02:45:21 PM 35.9242 -114.6081 90° East 386 444 19,100 2,081 Climbing Los Angeles Center
Sun 02:46:23 PM 35.9244 -114.4672 90° East 401 461 21,200 1,935 Climbing Los Angeles Center
Sun 02:47:25 PM 35.9236 -114.3217 90° East 417 480 23,100 1,935 Climbing Los Angeles Center
Sun 02:48:27 PM 35.9236 -114.1442 90° East 429 494 25,200 1,742 Climbing Los Angeles Center
Sun 02:49:29 PM 35.9233 -113.9900 90° East 441 507 26,700 1,452 Climbing Los Angeles Center
Sun 02:50:31 PM 35.9150 -113.8339 94° East 452 520 28,200 1,392 Climbing Los Angeles Center
Sun 02:51:34 PM 35.8878 -113.6803 102° East 458 527 29,600 1,296 Climbing Los Angeles Center
Sun 02:52:36 PM 35.8628 -113.5211 101° East 464 534 30,900 1,306 Climbing Los Angeles Center
Sun 02:53:38 PM 35.8389 -113.3633 101° East 468 539 32,300 1,452 Climbing Los Angeles Center
Sun 02:54:40 PM 35.8139 -113.2072 101° East 468 539 33,900 1,306 Climbing Los Angeles Center
Sun 02:55:42 PM 35.7839 -113.0228 101° East 463 533 35,000 532 Climbing Los Angeles Center
Sun 02:56:44 PM 35.7589 -112.8686 101° East 460 529 35,000 194 Level Los Angeles Center
Sun 02:57:46 PM 35.7328 -112.7139 102° East 460 529 35,400 774 Climbing Los Angeles Center
Sun 02:58:48 PM 35.7067 -112.5592 102° East 461 531 36,600 774 Climbing Los Angeles Center
Sun 02:59:50 PM 35.6808 -112.4050 102° East 461 531 37,000 192 Climbing Los Angeles Center
Sun 03:00:53 PM 35.6533 -112.2522 102° East 459 528 37,000  Level Los Angeles Center
Sun 03:01:55 PM 35.6236 -112.0686 101° East 457 526 37,000  Level Los Angeles Center
Sun 03:02:57 PM 35.6272 -111.9119 88° East 461 531 37,000  Level Los Angeles Center
Sun 03:03:59 PM 35.6325 -111.7561 88° East 459 528 37,000  Level Los Angeles Center
Sun 03:05:01 PM 35.6367 -111.6011 88° East 457 526 37,000  Level Los Angeles Center
Sun 03:05:52 PM 35.6400 -111.4758 88° East 459 528 37,000  Level Albuquerque Center
Sun 03:06:54 PM 35.6464 -111.2881 88° East 454 522 37,000  Level Albuquerque Center
Sun 03:07:56 PM 35.6506 -111.1397 88° East 454 522 37,000  Level Albuquerque Center
Sun 03:08:58 PM 35.6531 -110.9675 89° East 452 520 37,000  Level Albuquerque Center
Sun 03:09:59 PM 35.6578 -110.8200 88° East 452 520 37,000  Level Albuquerque Center
Sun 03:11:01 PM 35.6606 -110.6725 89° East 451 519 37,000  Level Albuquerque Center
Sun 03:12:03 PM 35.6639 -110.4997 89° East 453 521 37,000  Level Albuquerque Center
Sun 03:13:05 PM 35.6683 -110.3511 88° East 454 522 37,000  Level Albuquerque Center
Sun 03:14:07 PM 35.6722 -110.1767 88° East 456 525 37,000  Level Albuquerque Center
Sun 03:15:08 PM 35.6747 -110.0275 89° East 456 525 37,000  Level Albuquerque Center
Sun 03:16:10 PM 35.6769 -109.8508 89° East 461 531 37,000  Level Albuquerque Center
Sun 03:17:12 PM 35.6797 -109.6992 89° East 463 533 37,000  Level Albuquerque Center
Sun 03:18:14 PM 35.6819 -109.5225 89° East 464 534 37,000  Level Albuquerque Center
Sun 03:19:15 PM 35.6831 -109.3711 89° East 464 534 37,000  Level Albuquerque Center
Sun 03:20:17 PM 35.6850 -109.2194 89° East 465 535 37,000  Level Albuquerque Center
Sun 03:21:19 PM 35.6861 -109.0447 90° East 462 532 37,000  Level Albuquerque Center
Sun 03:22:21 PM 35.6878 -108.8961 89° East 459 528 37,000  Level Albuquerque Center
Sun 03:23:22 PM 35.6894 -108.7247 89° East 455 524 37,000  Level Albuquerque Center
Sun 03:24:24 PM 35.6894 -108.5772 90° East 454 522 37,000  Level Albuquerque Center
Sun 03:25:26 PM 35.6911 -108.4064 89° East 451 519 37,000  Level Albuquerque Center
Sun 03:26:28 PM 35.6919 -108.2597 90° East 451 519 37,000  Level Albuquerque Center
Sun 03:27:29 PM 35.6914 -108.0892 90° East 449 517 37,000  Level Albuquerque Center
Sun 03:28:31 PM 35.6906 -107.9425 90° East 448 516 37,000  Level Albuquerque Center
Sun 03:29:33 PM 35.6825 -107.7708 93° East 451 519 37,000  Level Albuquerque Center
Sun 03:30:35 PM 35.6650 -107.6233 98° East 455 524 37,000  Level Albuquerque Center
Sun 03:31:37 PM 35.6483 -107.4506 97° East 455 524 37,000  Level Albuquerque Center
Sun 03:32:38 PM 35.6361 -107.3025 96° East 456 525 37,000  Level Albuquerque Center
Sun 03:33:40 PM 35.6200 -107.1469 97° East 456 525 37,000  Level Albuquerque Center
Sun 03:34:42 PM 35.6064 -106.9908 96° East 456 525 37,000  Level Albuquerque Center
Sun 03:35:44 PM 35.5911 -106.8358 97° East 454 522 37,000  Level Albuquerque Center
Sun 03:36:46 PM 35.5750 -106.6808 97° East 454 522 37,000  Level Albuquerque Center
Sun 03:37:48 PM 35.5592 -106.5264 97° East 454 522 37,000  Level Albuquerque Center
Sun 03:38:49 PM 35.5439 -106.3728 97° East 452 520 37,000  Level Albuquerque Center
Sun 03:39:51 PM 35.5239 -106.1894 98° East 451 519 37,000  Level Albuquerque Center
Sun 03:40:53 PM 35.5083 -106.0358 97° East 451 519 37,000  Level Albuquerque Center
Sun 03:41:55 PM 35.4919 -105.8822 97° East 452 520 37,000  Level Albuquerque Center
Sun 03:42:57 PM 35.4747 -105.7378 98° East 452 520 37,000  Level Albuquerque Center
Sun 03:43:59 PM 35.4553 -105.5567 97° East 454 522 37,000  Level Albuquerque Center
Sun 03:45:00 PM 35.4161 -105.4092 108° East 451 519 37,000  Level Albuquerque Center
Sun 03:46:02 PM 35.3578 -105.2694 117° Southeast 456 525 37,000  Level Albuquerque Center
Sun 03:47:04 PM 35.3247 -105.1189 105° East 462 532 37,000  Level Albuquerque Center
Sun 03:48:06 PM 35.3083 -104.9647 97° East 454 522 37,000  Level Albuquerque Center
Sun 03:49:08 PM 35.2908 -104.8114 98° East 450 518 37,000  Level Albuquerque Center
Sun 03:50:09 PM 35.2739 -104.6575 98° East 452 520 37,000  Level Albuquerque Center
Sun 03:51:11 PM 35.2569 -104.4936 97° East 455 524 37,000  Level Albuquerque Center
Sun 03:52:13 PM 35.2392 -104.3419 98° East 452 520 37,000  Level Albuquerque Center
Sun 03:53:15 PM 35.2217 -104.1889 98° East 454 522 37,000  Level Albuquerque Center
Sun 03:54:17 PM 35.2033 -104.0383 98° East 452 520 37,000  Level Albuquerque Center
Sun 03:55:18 PM 35.1842 -103.8747 98° East 455 524 37,000  Level Albuquerque Center
Sun 03:56:20 PM 35.1625 -103.6964 98° East 452 520 37,000  Level Albuquerque Center
Sun 03:57:22 PM 35.1442 -103.5453 98° East 448 516 37,000  Level Albuquerque Center
Sun 03:58:24 PM 35.1256 -103.3928 98° East 450 518 37,000  Level Albuquerque Center
Sun 03:59:26 PM 35.1069 -103.2406 98° East 450 518 37,000  Level Albuquerque Center
Sun 04:00:28 PM 35.0869 -103.0878 99° East 452 520 37,000  Level Albuquerque Center
Sun 04:01:30 PM 35.0656 -102.9217 99° East 449 517 37,000  Level Albuquerque Center
Sun 04:02:31 PM 35.0464 -102.7703 99° East 452 520 37,000  Level Albuquerque Center
Sun 04:03:33 PM 35.0258 -102.6194 99° East 453 521 37,000  Level Albuquerque Center
Sun 04:04:35 PM 35.0061 -102.4692 99° East 452 520 37,000  Level Albuquerque Center
Sun 04:05:37 PM 34.9869 -102.3189 99° East 451 519 37,000  Level Albuquerque Center
Sun 04:06:38 PM 34.9658 -102.1686 100° East 452 520 37,000  Level Albuquerque Center
Sun 04:07:40 PM 34.9411 -101.9900 100° East 451 519 37,000  Level Albuquerque Center
Sun 04:08:42 PM 34.9211 -101.8422 99° East 449 517 37,000  Level Albuquerque Center
Sun 04:09:44 PM 34.9000 -101.6953 100° East 447 514 37,000  Level Albuquerque Center
Sun 04:10:46 PM 34.8806 -101.5469 99° East 449 517 37,000  Level Albuquerque Center
Sun 04:11:47 PM 34.8603 -101.3992 99° East 447 514 37,000  Level Albuquerque Center
Sun 04:12:49 PM 34.8350 -101.2225 100° East 446 513 37,000  Level Albuquerque Center
Sun 04:13:51 PM 34.8144 -101.0753 100° East 445 512 37,000  Level Albuquerque Center
Sun 04:14:53 PM 34.7925 -100.9275 100° East 446 513 37,000  Level Albuquerque Center
Sun 04:15:54 PM 34.7714 -100.7786 100° East 447 514 37,000  Level Albuquerque Center
Sun 04:16:56 PM 34.7492 -100.6297 100° East 449 517 37,000  Level Albuquerque Center
Sun 04:17:58 PM 34.7278 -100.4817 100° East 447 514 37,000  Level Albuquerque Center
Sun 04:19:00 PM 34.7019 -100.3075 100° East 450 518 37,000  Level Albuquerque Center
Sun 04:20:01 PM 34.6783 -100.1556 101° East 455 524 37,000  Level Albuquerque Center
Sun 04:21:03 PM 34.6550 -100.0036 101° East 457 526 37,000  Level Albuquerque Center
Sun 04:22:05 PM 34.6322 -99.8517 100° East 457 526 37,000  Level Albuquerque Center
Sun 04:23:07 PM 34.6086 -99.7003 101° East 457 526 37,000  Level Albuquerque Center
Sun 04:24:09 PM 34.5847 -99.5503 101° East 454 522 37,000  Level Albuquerque Center
Sun 04:25:10 PM 34.5614 -99.4008 101° East 452 520 37,000  Level Albuquerque Center
Sun 04:26:12 PM 34.5328 -99.2194 101° East 455 524 37,000  Level Albuquerque Center
Sun 04:27:14 PM 34.5083 -99.0714 101° East 451 519 37,000  Level Albuquerque Center
Sun 04:28:27 PM 34.4794 -98.9050 102° East 447 514 37,000  Level Fort Worth Center
Sun 04:29:27 PM 34.4542 -98.7533 101° East 447 514 37,000  Level Fort Worth Center
Sun 04:30:27 PM 34.4286 -98.6019 102° East 452 520 37,000  Level Fort Worth Center
Sun 04:31:27 PM 34.4047 -98.4531 101° East 452 520 37,000  Level Fort Worth Center
Sun 04:32:27 PM 34.3747 -98.2767 102° East 461 531 37,000  Level Fort Worth Center
Sun 04:33:27 PM 34.3467 -98.1228 102° East 471 542 37,000  Level Fort Worth Center
Sun 04:34:27 PM 34.3203 -97.9667 102° East 471 542 37,000  Level Fort Worth Center
Sun 04:35:27 PM 34.2936 -97.8081 101° East 471 542 37,000  Level Fort Worth Center
Sun 04:36:27 PM 34.2650 -97.6497 102° East 471 542 37,000  Level Fort Worth Center
Sun 04:37:27 PM 34.2381 -97.4864 101° East 477 549 37,000  Level Fort Worth Center
Sun 04:38:27 PM 34.2108 -97.3281 102° East 482 555 37,000  Level Fort Worth Center
Sun 04:39:27 PM 34.1794 -97.1675 103° East 487 560 37,000  Level Fort Worth Center
Sun 04:40:27 PM 34.1519 -97.0094 102° East 487 560 37,000  Level Fort Worth Center
Sun 04:41:27 PM 34.1219 -96.8489 103° East 487 560 37,000  Level Fort Worth Center
Sun 04:42:27 PM 34.1006 -96.7211 101° East 487 560 37,000  Level Fort Worth Center
Sun 04:43:27 PM 34.0744 -96.5433 100° East 487 560 37,000  Level Fort Worth Center
Sun 04:44:27 PM 34.0419 -96.3808 104° East 487 560 37,000  Level Fort Worth Center
Sun 04:45:27 PM 34.0133 -96.2208 102° East 487 560 37,000  Level Fort Worth Center
Sun 04:46:27 PM 33.9803 -96.0458 103° East 487 560 37,000  Level Fort Worth Center
Sun 04:47:27 PM 33.9514 -95.8886 102° East 487 560 37,000  Level Fort Worth Center
Sun 04:48:27 PM 33.9178 -95.7214 104° East 492 566 37,000  Level Fort Worth Center
Sun 04:49:27 PM 33.8864 -95.5644 104° East 492 566 37,000  Level Fort Worth Center
Sun 04:50:27 PM 33.8547 -95.4025 103° East 486 559 37,000  Level Fort Worth Center
Sun 04:51:27 PM 33.8228 -95.2408 103° East 486 559 37,000  Level Fort Worth Center
Sun 04:52:27 PM 33.7906 -95.0767 103° East 491 565 37,000  Level Fort Worth Center
Sun 04:53:27 PM 33.7603 -94.9150 103° East 491 565 37,000  Level Fort Worth Center
Sun 04:54:27 PM 33.7256 -94.7486 104° East 496 571 37,000  Level Fort Worth Center
Sun 04:55:27 PM 33.6950 -94.5825 102° East 501 577 37,000  Level Fort Worth Center
Sun 04:56:27 PM 33.6619 -94.4164 103° East 507 583 37,000  Level Fort Worth Center
Sun 04:57:27 PM 33.6286 -94.2528 104° East 507 583 37,000  Level Fort Worth Center
Sun 04:58:27 PM 33.5972 -94.0894 103° East 507 583 37,000  Level Fort Worth Center
Sun 04:59:27 PM 33.5683 -93.9433 103° East 507 583 37,000  Level Fort Worth Center
Sun 05:00:27 PM 33.5344 -93.7803 104° East 507 583 37,000  Level Fort Worth Center
Sun 05:01:27 PM 33.5006 -93.6197 104° East 507 583 37,000  Level Fort Worth Center
Sun 05:02:27 PM 33.4642 -93.4594 105° East 507 583 37,000  Level Fort Worth Center
Sun 05:03:27 PM 33.4300 -93.3017 105° East 497 572 37,000  Level Fort Worth Center
Sun 05:04:27 PM 33.3975 -93.1439 104° East 489 563 37,000  Level Fort Worth Center
Sun 05:05:27 PM 33.3628 -92.9864 105° East 489 563 37,000  Level Fort Worth Center
Sun 05:06:27 PM 33.3300 -92.8267 104° East 489 563 37,000  Level Fort Worth Center
Sun 05:07:27 PM 33.2994 -92.6767 104° East 484 557 37,000  Level Fort Worth Center
Sun 05:08:27 PM 33.2600 -92.5222 107° East 484 557 37,000  Level Fort Worth Center
Sun 05:09:27 PM 33.2311 -92.3700 103° East 479 551 37,000  Level Fort Worth Center
Sun 05:10:50 PM 33.1744 -92.1692 109° East 492 566 37,000 168 Level Memphis Center
Sun 05:11:50 PM 33.1203 -92.0092 112° Southeast 472 543 37,400 700 Climbing Memphis Center
Sun 05:12:50 PM 33.0719 -91.8694 112° Southeast 467 537 38,400 800 Climbing Memphis Center
Sun 05:13:50 PM 33.0422 -91.7278 104° East 451 519 39,000 300 Climbing Memphis Center
Sun 05:14:50 PM 33.0189 -91.5811 101° East 438 504 39,000  Level Memphis Center
Sun 05:15:50 PM 33.0056 -91.4372 96° East 438 504 39,000  Level Memphis Center
Sun 05:16:50 PM 32.9942 -91.2911 95° East 433 498 39,000  Level Memphis Center
Sun 05:17:50 PM 32.9867 -91.1472 94° East 433 498 39,000  Level Memphis Center
Sun 05:18:50 PM 32.9689 -91.0061 99° East 433 498 39,000  Level Memphis Center
Sun 05:19:50 PM 32.9339 -90.8672 107° East 433 498 39,000  Level Memphis Center
Sun 05:21:00 PM 32.8872 -90.7069 109° East  Level FlightAware Approximate
Sun 05:21:50 PM 32.8658 -90.6094 109° East 433 498 39,000  Level Memphis Center
Sun 05:22:50 PM 32.8325 -90.4758 107° East 423 487 39,000  Level Memphis Center
Sun 05:23:50 PM 32.7972 -90.3450 108° East 423 487 39,000  Level Memphis Center
Sun 05:24:50 PM 32.7617 -90.2189 109° East 417 480 39,000  Level Memphis Center
Sun 05:25:50 PM 32.7258 -90.0906 108° East 417 480 39,000  Level Memphis Center
Sun 05:26:50 PM 32.6922 -89.9622 107° East 407 468 39,000  Level Memphis Center
Sun 05:27:50 PM 32.6583 -89.8392 108° East 401 461 39,000  Level Memphis Center
Sun 05:28:50 PM 32.6264 -89.7158 107° East 401 461 39,000  Level Memphis Center
Sun 05:29:50 PM 32.5922 -89.5806 107° East 396 456 39,000  Level Memphis Center
Sun 05:30:50 PM 32.5600 -89.4575 107° East 391 450 39,000  Level Memphis Center
Sun 05:31:50 PM 32.5258 -89.3347 108° East 391 450 39,000  Level Memphis Center
Sun 05:32:50 PM 32.4933 -89.2119 107° East 386 444 39,000  Level Memphis Center
Sun 05:33:50 PM 32.4586 -89.0894 109° East 386 444 39,000  Level Memphis Center
Sun 05:34:50 PM 32.4200 -88.9692 111° Southeast 386 444 39,000  Level Memphis Center
Sun 05:35:50 PM 32.3642 -88.8569 120° Southeast 386 444 39,000  Level Memphis Center
Sun 05:37:31 PM 32.2728 -88.6814 122° Southeast 385 443 39,000  Level Atlanta Center
Sun 05:38:31 PM 32.2164 -88.5731 122° Southeast 380 437 39,000  Level Atlanta Center
Sun 05:39:31 PM 32.1678 -88.4772 121° Southeast 380 437 39,000  Level Atlanta Center
Sun 05:40:31 PM 32.1092 -88.3664 122° Southeast 387 445 39,000  Level Atlanta Center
Sun 05:41:31 PM 32.0525 -88.2558 121° Southeast 393 452 39,000  Level Atlanta Center
Sun 05:42:31 PM 31.9936 -88.1431 122° Southeast 393 452 39,000  Level Atlanta Center
Sun 05:44:14 PM 31.8906 -87.9425 121° Southeast 395 455 39,000  Level Jacksonville Center
Sun 05:45:14 PM 31.8367 -87.8294 119° Southeast 395 455 39,000  Level Jacksonville Center
Sun 05:46:14 PM 31.7931 -87.7100 113° Southeast 395 455 39,000  Level Jacksonville Center
Sun 05:47:14 PM 31.7517 -87.5881 112° Southeast 390 449 39,000  Level Jacksonville Center
Sun 05:48:14 PM 31.7103 -87.4689 112° Southeast 396 456 39,000  Level Jacksonville Center
Sun 05:49:14 PM 31.6667 -87.3469 113° Southeast 396 456 39,000  Level Jacksonville Center
Sun 05:50:14 PM 31.6242 -87.2450 116° Southeast 396 456 39,000  Level Jacksonville Center
Sun 05:51:14 PM 31.5844 -87.1211 111° Southeast 396 456 39,000  Level Jacksonville Center
Sun 05:52:14 PM 31.5722 -86.9914 96° East 396 456 39,000  Level Jacksonville Center
Sun 05:53:14 PM 31.5597 -86.8592 96° East 396 456 39,000  Level Jacksonville Center
Sun 05:54:14 PM 31.5450 -86.7269 97° East 402 463 39,000  Level Jacksonville Center
Sun 05:55:14 PM 31.5319 -86.5972 97° East 402 463 39,000  Level Jacksonville Center
Sun 05:56:14 PM 31.5192 -86.4653 96° East 407 468 39,000  Level Jacksonville Center
Sun 05:57:14 PM 31.5108 -86.3164 94° East 407 468 39,000  Level Jacksonville Center
Sun 05:58:14 PM 31.5142 -86.1822 88° East 407 468 39,000  Level Jacksonville Center
Sun 05:59:14 PM 31.5156 -86.0458 89° East 407 468 39,000  Level Jacksonville Center
Sun 06:00:14 PM 31.5169 -85.9094 89° East 407 468 39,000  Level Jacksonville Center
Sun 06:01:14 PM 31.5158 -85.7731 91° East 407 468 39,000  Level Jacksonville Center
Sun 06:02:14 PM 31.5186 -85.6417 89° East 407 468 39,000  Level Jacksonville Center
Sun 06:03:14 PM 31.5153 -85.5075 92° East 407 468 39,000  Level Jacksonville Center
Sun 06:04:14 PM 31.5097 -85.3708 93° East 407 468 39,000  Level Jacksonville Center
Sun 06:05:14 PM 31.4703 -85.2456 110° East 402 463 39,000  Level Jacksonville Center
Sun 06:06:14 PM 31.4267 -85.1253 113° Southeast 407 468 39,000 -250 Level Jacksonville Center
Sun 06:07:14 PM 31.3869 -85.0025 111° Southeast 407 468 38,500 -750 Descending Jacksonville Center
Sun 06:08:14 PM 31.3408 -84.8750 113° Southeast 412 474 37,500 -950 Descending Jacksonville Center
Sun 06:09:14 PM 31.2969 -84.7453 112° Southeast 417 480 36,600 -950 Descending Jacksonville Center
Sun 06:10:14 PM 31.2508 -84.6181 113° Southeast 417 480 35,600 -800 Descending Jacksonville Center
Sun 06:11:14 PM 31.2044 -84.4883 113° Southeast 417 480 35,000 -400 Descending Jacksonville Center
Sun 06:12:14 PM 31.1642 -84.3542 109° East 422 486 34,800 -300 Descending Jacksonville Center
Sun 06:13:14 PM 31.1303 -84.2225 107° East 422 486 34,400 -450 Descending Jacksonville Center
Sun 06:14:14 PM 31.0919 -84.0861 108° East 427 491 33,900 -650 Descending Jacksonville Center
Sun 06:15:14 PM 31.0450 -83.9569 113° Southeast 427 491 33,100 -1,700 Descending Jacksonville Center
Sun 06:16:14 PM 30.9981 -83.8378 115° Southeast 440 506 30,500 -2,300 Descending Jacksonville Center
Sun 06:17:14 PM 30.9489 -83.7064 114° Southeast 440 506 28,500 -1,600 Descending Jacksonville Center
Sun 06:18:14 PM 30.8994 -83.5728 113° Southeast 440 506 27,300 -1,200 Descending Jacksonville Center
Sun 06:19:14 PM 30.8500 -83.4444 114° Southeast 440 506 26,100 -1,150 Descending Jacksonville Center
Sun 06:20:14 PM 30.8086 -83.3256 112° Southeast 424 488 25,000 -1,050 Descending Jacksonville Center
Sun 06:21:14 PM 30.7631 -83.2117 115° Southeast 404 465 24,000 -1,000 Descending Jacksonville Center
Sun 06:22:14 PM 30.7172 -83.0981 115° Southeast 389 448 23,000 -1,000 Descending Jacksonville Center
Sun 06:23:14 PM 30.6758 -82.9892 114° Southeast 376 433 22,000 -1,050 Descending Jacksonville Center
Sun 06:24:14 PM 30.6319 -82.8781 115° Southeast 369 425 20,900 -1,200 Descending Jacksonville Center
Sun 06:25:14 PM 30.5900 -82.7719 115° Southeast 363 418 19,600 -1,700 Descending Jacksonville Center
Sun 06:26:14 PM 30.5503 -82.6658 113° Southeast 363 418 17,500 -2,467 Descending Jacksonville Center
Sun 06:27:01 PM 30.5125 -82.5767 116° Southeast 367 422 15,200 -2,833 Descending Jacksonville Center
Sun 06:28:02 PM 30.5183 -82.4608 87° East 373 429 12,400 -2,132 Descending Jacksonville Center
Sun 06:29:02 PM 30.5472 -82.3425 74° East 347 399 10,900 -1,049 Descending Jacksonville Center
Sun 06:29:45 PM 30.5700 -82.2822 66° East 292 336 10,600 -714 Descending Jacksonville Center
Sun 06:30:26 PM 30.5947 -82.2264 63° Northeast 306 352 9,900 -1,366 Descending Jacksonville Center
Sun 06:31:26 PM 30.6297 -82.1514 62° Northeast 280 322 8,300 -1,450 Descending Jacksonville Center
Sun 06:32:26 PM 30.6628 -82.0739 64° Northeast 268 308 7,000 -1,400 Descending Jacksonville Center
Sun 06:33:26 PM 30.6872 -81.9964 70° East 255 293 5,500 -1,340 Descending Jacksonville Center
Sun 06:34:00 PM 30.6764 -81.9531 106° East 235 270 4,900 -1,227 Descending Jacksonville Center
Sun 06:34:54 PM 30.6406 -81.9003 128° Southeast 233 268 3,700 -1,047 Descending Jacksonville Center
Sun 06:35:26 PM 30.6175 -81.8739 135° Southeast 214 246 3,400 -783 Descending Jacksonville Center
Sun 06:36:26 PM 30.5772 -81.8211 132° Southeast 220 253 2,500 -875 Descending Jacksonville Center
Sun 06:37:50 PM 30.5331 -81.7614 131° Southeast 141 162 1,300 -795 Descending Jacksonville Center
Sun 06:38:57 PM 30.5033 -81.7233 132° Southeast 129 148 500 -716 Descending Jacksonville Center
Sun 06:40:00 PM 30.4941 -81.6879 131° Southeast  Level Estimated
Sun 06:47:00 PM 30.4941 -81.6879 311° West  Level Estimated

Login

Don't have an account? Register now (free) for customized features, flight alerts, and more!